Pueblitos, New Mexico
Current Conditions -  °F | °C
As of 10:52 PM on Sunday 19 Oct 2014 (Local Time) from KABQ Reporting Station
Few Clouds Few Clouds  
Wind Chill: 56°   Ceiling: Unl
Heat Index: 56°   Visibility: 10mi
Dew Point: 42°   Wind: 3mph
Humidity: 60%   Direction: 20°NNE
Pressure: 30.15"   Gusts: NA
Location:  34.5756°N, 106.588°W
Report Text: KABQ 200452Z 02003KT 10SM FEW220 13/06 A3015 RMK AO2 SLP156 T01330056
Loading
Personal Weather Stations






























Interactive Weather Map
Tropical Storm Tracking
New forecast layout! Learn more

10-Day Weather Forecast

Advertisements
Track Severe Weather on mobile